sensor_id;sensor_type;location;lat;lon;timestamp;temperature;humidity
25280;DHT22;13225;47.804;12.116;2023-05-27T00:00:06;15.00;99.90
25280;DHT22;13225;47.804;12.116;2023-05-27T00:02:32;14.90;99.90
25280;DHT22;13225;47.804;12.116;2023-05-27T00:04:57;14.90;99.90
25280;DHT22;13225;47.804;12.116;2023-05-27T00:07:23;14.90;99.90
25280;DHT22;13225;47.804;12.116;2023-05-27T00:09:49;14.90;99.90
25280;DHT22;13225;47.804;12.116;2023-05-27T00:12:14;14.90;99.90
25280;DHT22;13225;47.804;12.116;2023-05-27T00:14:40;14.90;99.90
25280;DHT22;13225;47.804;12.116;2023-05-27T00:17:06;14.90;99.90
25280;DHT22;13225;47.804;12.116;2023-05-27T00:19:32;14.80;99.90
25280;DHT22;13225;47.804;12.116;2023-05-27T00:21:58;14.80;99.90
25280;DHT22;13225;47.804;12.116;2023-05-27T00:24:23;14.80;99.90
25280;DHT22;13225;47.804;12.116;2023-05-27T00:26:49;14.80;99.90
25280;DHT22;13225;47.804;12.116;2023-05-27T00:29:16;14.80;99.90
25280;DHT22;13225;47.804;12.116;2023-05-27T00:31:42;14.80;99.90
25280;DHT22;13225;47.804;12.116;2023-05-27T00:34:08;14.80;99.90
25280;DHT22;13225;47.804;12.116;2023-05-27T00:36:33;14.80;99.90
25280;DHT22;13225;47.804;12.116;2023-05-27T00:39:00;14.90;99.90
25280;DHT22;13225;47.804;12.116;2023-05-27T00:41:26;14.80;99.90
25280;DHT22;13225;47.804;12.116;2023-05-27T00:43:56;14.70;99.90
25280;DHT22;13225;47.804;12.116;2023-05-27T00:46:22;14.70;99.90
25280;DHT22;13225;47.804;12.116;2023-05-27T00:48:48;14.70;99.90
25280;DHT22;13225;47.804;12.116;2023-05-27T00:51:14;14.60;99.90
25280;DHT22;13225;47.804;12.116;2023-05-27T00:53:41;14.60;99.90
25280;DHT22;13225;47.804;12.116;2023-05-27T00:56:08;14.50;99.90
25280;DHT22;13225;47.804;12.116;2023-05-27T00:58:35;14.50;99.90
25280;DHT22;13225;47.804;12.116;2023-05-27T01:01:02;14.50;99.90
25280;DHT22;13225;47.804;12.116;2023-05-27T01:03:28;14.40;99.90
25280;DHT22;13225;47.804;12.116;2023-05-27T01:06:15;14.30;99.90
25280;DHT22;13225;47.804;12.116;2023-05-27T01:08:59;14.30;99.90
25280;DHT22;13225;47.804;12.116;2023-05-27T01:11:41;14.20;99.90
25280;DHT22;13225;47.804;12.116;2023-05-27T01:14:10;14.00;99.90
25280;DHT22;13225;47.804;12.116;2023-05-27T01:16:38;13.90;99.90
25280;DHT22;13225;47.804;12.116;2023-05-27T01:19:17;13.90;99.90
25280;DHT22;13225;47.804;12.116;2023-05-27T01:21:50;13.80;99.90
25280;DHT22;13225;47.804;12.116;2023-05-27T01:24:18;13.70;99.90
25280;DHT22;13225;47.804;12.116;2023-05-27T01:26:44;13.60;99.90
25280;DHT22;13225;47.804;12.116;2023-05-27T01:29:09;13.60;99.90
25280;DHT22;13225;47.804;12.116;2023-05-27T01:45:19;13.30;99.90
25280;DHT22;13225;47.804;12.116;2023-05-27T01:47:45;13.30;99.90
25280;DHT22;13225;47.804;12.116;2023-05-27T01:50:11;13.20;99.90
25280;DHT22;13225;47.804;12.116;2023-05-27T01:52:36;13.20;99.90
25280;DHT22;13225;47.804;12.116;2023-05-27T01:55:02;13.20;99.90
25280;DHT22;13225;47.804;12.116;2023-05-27T01:57:30;13.20;99.90
25280;DHT22;13225;47.804;12.116;2023-05-27T01:59:55;13.20;99.90
25280;DHT22;13225;47.804;12.116;2023-05-27T02:02:21;13.00;99.90
25280;DHT22;13225;47.804;12.116;2023-05-27T02:04:46;13.00;99.90
25280;DHT22;13225;47.804;12.116;2023-05-27T02:07:12;13.00;99.90
25280;DHT22;13225;47.804;12.116;2023-05-27T02:09:37;12.90;99.90
25280;DHT22;13225;47.804;12.116;2023-05-27T02:12:03;12.80;99.90
25280;DHT22;13225;47.804;12.116;2023-05-27T02:14:29;12.80;99.90
25280;DHT22;13225;47.804;12.116;2023-05-27T02:16:56;12.70;99.90
25280;DHT22;13225;47.804;12.116;2023-05-27T02:19:23;12.60;99.90
25280;DHT22;13225;47.804;12.116;2023-05-27T02:21:50;12.60;99.90
25280;DHT22;13225;47.804;12.116;2023-05-27T02:24:15;12.50;99.90
25280;DHT22;13225;47.804;12.116;2023-05-27T02:26:41;12.50;99.90
25280;DHT22;13225;47.804;12.116;2023-05-27T02:29:06;12.50;99.90
25280;DHT22;13225;47.804;12.116;2023-05-27T02:31:32;12.40;99.90
25280;DHT22;13225;47.804;12.116;2023-05-27T02:33:57;12.40;99.90
25280;DHT22;13225;47.804;12.116;2023-05-27T02:36:23;12.40;99.90
25280;DHT22;13225;47.804;12.116;2023-05-27T02:38:49;12.30;99.90
25280;DHT22;13225;47.804;12.116;2023-05-27T02:41:15;12.30;99.90
25280;DHT22;13225;47.804;12.116;2023-05-27T02:43:40;12.20;99.90
25280;DHT22;13225;47.804;12.116;2023-05-27T02:46:06;12.10;99.90
25280;DHT22;13225;47.804;12.116;2023-05-27T02:48:31;12.10;99.90
25280;DHT22;13225;47.804;12.116;2023-05-27T02:50:57;12.10;99.90
25280;DHT22;13225;47.804;12.116;2023-05-27T02:53:22;12.00;99.90
25280;DHT22;13225;47.804;12.116;2023-05-27T02:55:49;12.00;99.90
25280;DHT22;13225;47.804;12.116;2023-05-27T02:58:15;12.00;99.90
25280;DHT22;13225;47.804;12.116;2023-05-27T03:00:40;11.90;99.90
25280;DHT22;13225;47.804;12.116;2023-05-27T03:03:06;11.90;99.90
25280;DHT22;13225;47.804;12.116;2023-05-27T03:05:34;11.80;99.90
25280;DHT22;13225;47.804;12.116;2023-05-27T03:08:00;11.80;99.90
25280;DHT22;13225;47.804;12.116;2023-05-27T03:10:26;11.70;99.90
25280;DHT22;13225;47.804;12.116;2023-05-27T03:12:54;11.70;99.90
25280;DHT22;13225;47.804;12.116;2023-05-27T03:15:20;11.60;99.90
25280;DHT22;13225;47.804;12.116;2023-05-27T03:17:47;11.60;99.90
25280;DHT22;13225;47.804;12.116;2023-05-27T03:20:12;11.60;99.90
25280;DHT22;13225;47.804;12.116;2023-05-27T03:22:38;11.60;99.90
25280;DHT22;13225;47.804;12.116;2023-05-27T03:25:04;11.60;99.90
25280;DHT22;13225;47.804;12.116;2023-05-27T03:27:30;11.50;99.90
25280;DHT22;13225;47.804;12.116;2023-05-27T03:29:56;11.50;99.90
25280;DHT22;13225;47.804;12.116;2023-05-27T03:32:22;11.50;99.90
25280;DHT22;13225;47.804;12.116;2023-05-27T03:34:47;11.50;99.90
25280;DHT22;13225;47.804;12.116;2023-05-27T03:37:13;11.50;99.90
25280;DHT22;13225;47.804;12.116;2023-05-27T03:39:39;11.50;99.90
25280;DHT22;13225;47.804;12.116;2023-05-27T03:42:05;11.40;99.90
25280;DHT22;13225;47.804;12.116;2023-05-27T03:44:32;11.50;99.90
25280;DHT22;13225;47.804;12.116;2023-05-27T03:46:57;11.50;99.90
25280;DHT22;13225;47.804;12.116;2023-05-27T03:49:23;11.50;99.90
25280;DHT22;13225;47.804;12.116;2023-05-27T03:51:49;11.60;99.90
25280;DHT22;13225;47.804;12.116;2023-05-27T03:54:14;11.60;99.90
25280;DHT22;13225;47.804;12.116;2023-05-27T03:56:40;11.60;99.90
25280;DHT22;13225;47.804;12.116;2023-05-27T03:59:06;11.70;99.90
25280;DHT22;13225;47.804;12.116;2023-05-27T04:01:34;11.70;99.90
25280;DHT22;13225;47.804;12.116;2023-05-27T04:03:59;11.80;99.90
25280;DHT22;13225;47.804;12.116;2023-05-27T04:06:25;12.10;99.90
25280;DHT22;13225;47.804;12.116;2023-05-27T04:08:51;12.30;99.90
25280;DHT22;13225;47.804;12.116;2023-05-27T04:11:16;12.60;99.90
25280;DHT22;13225;47.804;12.116;2023-05-27T04:13:42;12.70;99.90
25280;DHT22;13225;47.804;12.116;2023-05-27T04:16:07;12.70;99.90
25280;DHT22;13225;47.804;12.116;2023-05-27T04:18:33;12.80;99.90
25280;DHT22;13225;47.804;12.116;2023-05-27T04:21:00;13.10;99.90
25280;DHT22;13225;47.804;12.116;2023-05-27T04:23:26;13.40;99.90
25280;DHT22;13225;47.804;12.116;2023-05-27T04:25:52;13.50;99.90
25280;DHT22;13225;47.804;12.116;2023-05-27T04:28:18;13.70;99.90
25280;DHT22;13225;47.804;12.116;2023-05-27T04:30:44;14.00;99.90
25280;DHT22;13225;47.804;12.116;2023-05-27T04:33:14;14.00;99.90
25280;DHT22;13225;47.804;12.116;2023-05-27T04:35:40;13.80;99.90
25280;DHT22;13225;47.804;12.116;2023-05-27T04:38:10;13.90;99.90
25280;DHT22;13225;47.804;12.116;2023-05-27T04:40:41;14.10;99.90
25280;DHT22;13225;47.804;12.116;2023-05-27T04:43:07;14.80;99.90
25280;DHT22;13225;47.804;12.116;2023-05-27T04:45:33;14.90;99.90
25280;DHT22;13225;47.804;12.116;2023-05-27T04:47:59;15.00;99.90
25280;DHT22;13225;47.804;12.116;2023-05-27T04:50:26;15.40;99.90
25280;DHT22;13225;47.804;12.116;2023-05-27T04:52:51;15.30;99.90
25280;DHT22;13225;47.804;12.116;2023-05-27T04:55:18;15.60;99.90
25280;DHT22;13225;47.804;12.116;2023-05-27T04:57:43;16.00;99.90
25280;DHT22;13225;47.804;12.116;2023-05-27T05:00:09;16.30;99.90
25280;DHT22;13225;47.804;12.116;2023-05-27T05:02:35;16.30;99.90
25280;DHT22;13225;47.804;12.116;2023-05-27T05:05:08;16.90;99.90
25280;DHT22;13225;47.804;12.116;2023-05-27T05:07:34;16.80;99.90
25280;DHT22;13225;47.804;12.116;2023-05-27T05:10:04;16.60;99.90
25280;DHT22;13225;47.804;12.116;2023-05-27T05:12:30;16.40;99.90
25280;DHT22;13225;47.804;12.116;2023-05-27T05:14:57;16.50;99.90
25280;DHT22;13225;47.804;12.116;2023-05-27T05:17:22;17.00;99.90
25280;DHT22;13225;47.804;12.116;2023-05-27T05:19:49;16.80;99.90
25280;DHT22;13225;47.804;12.116;2023-05-27T05:22:15;17.10;99.90
25280;DHT22;13225;47.804;12.116;2023-05-27T05:24:44;16.60;99.90
25280;DHT22;13225;47.804;12.116;2023-05-27T05:27:10;15.90;99.90
25280;DHT22;13225;47.804;12.116;2023-05-27T05:29:35;15.60;99.90
25280;DHT22;13225;47.804;12.116;2023-05-27T05:32:02;15.60;99.90
25280;DHT22;13225;47.804;12.116;2023-05-27T05:34:28;15.60;99.90
25280;DHT22;13225;47.804;12.116;2023-05-27T05:36:53;15.30;99.90
25280;DHT22;13225;47.804;12.116;2023-05-27T05:39:19;15.20;99.90
25280;DHT22;13225;47.804;12.116;2023-05-27T05:41:45;15.20;99.90
25280;DHT22;13225;47.804;12.116;2023-05-27T05:44:12;14.80;99.90
25280;DHT22;13225;47.804;12.116;2023-05-27T05:46:38;14.70;99.90
25280;DHT22;13225;47.804;12.116;2023-05-27T05:49:04;14.70;99.90
25280;DHT22;13225;47.804;12.116;2023-05-27T05:51:30;14.80;99.90
25280;DHT22;13225;47.804;12.116;2023-05-27T05:53:59;15.10;99.90
25280;DHT22;13225;47.804;12.116;2023-05-27T05:56:25;15.30;99.90
25280;DHT22;13225;47.804;12.116;2023-05-27T05:58:51;15.40;99.90
25280;DHT22;13225;47.804;12.116;2023-05-27T06:01:17;15.30;99.90
25280;DHT22;13225;47.804;12.116;2023-05-27T06:03:43;15.50;99.90
25280;DHT22;13225;47.804;12.116;2023-05-27T06:06:09;15.50;99.90
25280;DHT22;13225;47.804;12.116;2023-05-27T06:08:35;15.60;99.90
25280;DHT22;13225;47.804;12.116;2023-05-27T06:11:00;15.50;99.90
25280;DHT22;13225;47.804;12.116;2023-05-27T06:13:26;15.60;99.90
25280;DHT22;13225;47.804;12.116;2023-05-27T06:15:51;15.70;99.90
25280;DHT22;13225;47.804;12.116;2023-05-27T06:18:17;15.80;99.90
25280;DHT22;13225;47.804;12.116;2023-05-27T06:20:43;15.90;99.90
25280;DHT22;13225;47.804;12.116;2023-05-27T06:23:09;15.90;99.90
25280;DHT22;13225;47.804;12.116;2023-05-27T06:25:34;15.90;99.90
25280;DHT22;13225;47.804;12.116;2023-05-27T06:28:00;16.00;99.90
25280;DHT22;13225;47.804;12.116;2023-05-27T06:30:26;16.00;99.90
25280;DHT22;13225;47.804;12.116;2023-05-27T06:32:52;16.00;99.90
25280;DHT22;13225;47.804;12.116;2023-05-27T06:35:18;16.10;99.90
25280;DHT22;13225;47.804;12.116;2023-05-27T06:37:43;16.00;99.90
25280;DHT22;13225;47.804;12.116;2023-05-27T06:40:09;16.00;99.90
25280;DHT22;13225;47.804;12.116;2023-05-27T06:42:37;16.10;99.90
25280;DHT22;13225;47.804;12.116;2023-05-27T06:45:03;16.20;99.90
25280;DHT22;13225;47.804;12.116;2023-05-27T06:47:29;16.30;99.90
25280;DHT22;13225;47.804;12.116;2023-05-27T06:49:54;16.10;99.90
25280;DHT22;13225;47.804;12.116;2023-05-27T06:52:20;16.30;99.90
25280;DHT22;13225;47.804;12.116;2023-05-27T06:54:46;16.40;99.90
25280;DHT22;13225;47.804;12.116;2023-05-27T06:57:12;16.10;99.90
25280;DHT22;13225;47.804;12.116;2023-05-27T06:59:38;16.00;99.90
25280;DHT22;13225;47.804;12.116;2023-05-27T07:02:04;16.30;99.90
25280;DHT22;13225;47.804;12.116;2023-05-27T07:04:29;16.50;99.90
25280;DHT22;13225;47.804;12.116;2023-05-27T07:06:55;16.60;99.90
25280;DHT22;13225;47.804;12.116;2023-05-27T07:09:21;16.80;99.90
25280;DHT22;13225;47.804;12.116;2023-05-27T07:11:46;16.90;99.90
25280;DHT22;13225;47.804;12.116;2023-05-27T07:14:12;17.00;99.90
25280;DHT22;13225;47.804;12.116;2023-05-27T07:16:37;17.00;99.90
25280;DHT22;13225;47.804;12.116;2023-05-27T07:19:03;17.10;99.90
25280;DHT22;13225;47.804;12.116;2023-05-27T07:21:29;17.10;99.90
25280;DHT22;13225;47.804;12.116;2023-05-27T07:23:54;17.00;99.90
25280;DHT22;13225;47.804;12.116;2023-05-27T07:26:24;17.10;99.90
25280;DHT22;13225;47.804;12.116;2023-05-27T07:28:51;17.20;99.90
25280;DHT22;13225;47.804;12.116;2023-05-27T07:31:17;17.30;99.90
25280;DHT22;13225;47.804;12.116;2023-05-27T07:33:43;17.40;99.90
25280;DHT22;13225;47.804;12.116;2023-05-27T07:36:08;17.50;99.90
25280;DHT22;13225;47.804;12.116;2023-05-27T07:38:35;17.40;99.90
25280;DHT22;13225;47.804;12.116;2023-05-27T07:41:01;17.60;99.90
25280;DHT22;13225;47.804;12.116;2023-05-27T07:43:26;17.50;99.90
25280;DHT22;13225;47.804;12.116;2023-05-27T07:45:52;17.50;99.90
25280;DHT22;13225;47.804;12.116;2023-05-27T07:48:17;17.70;99.90
25280;DHT22;13225;47.804;12.116;2023-05-27T07:50:43;17.80;99.90
25280;DHT22;13225;47.804;12.116;2023-05-27T07:53:09;17.80;99.90
25280;DHT22;13225;47.804;12.116;2023-05-27T07:55:34;17.90;99.90
25280;DHT22;13225;47.804;12.116;2023-05-27T07:58:00;17.90;99.90
25280;DHT22;13225;47.804;12.116;2023-05-27T08:00:25;17.90;99.90
25280;DHT22;13225;47.804;12.116;2023-05-27T08:02:51;18.00;99.90
25280;DHT22;13225;47.804;12.116;2023-05-27T08:05:16;18.00;99.90
25280;DHT22;13225;47.804;12.116;2023-05-27T08:07:42;18.00;99.90
25280;DHT22;13225;47.804;12.116;2023-05-27T08:10:08;18.00;99.90
25280;DHT22;13225;47.804;12.116;2023-05-27T08:12:34;18.10;99.90
25280;DHT22;13225;47.804;12.116;2023-05-27T08:14:59;18.10;99.90
25280;DHT22;13225;47.804;12.116;2023-05-27T08:17:25;18.10;99.90
25280;DHT22;13225;47.804;12.116;2023-05-27T08:19:51;18.20;99.90
25280;DHT22;13225;47.804;12.116;2023-05-27T08:22:16;18.40;99.90
25280;DHT22;13225;47.804;12.116;2023-05-27T08:24:42;18.50;99.90
25280;DHT22;13225;47.804;12.116;2023-05-27T08:27:14;18.50;99.90
25280;DHT22;13225;47.804;12.116;2023-05-27T08:29:40;18.50;99.90
25280;DHT22;13225;47.804;12.116;2023-05-27T08:32:06;18.70;99.90
25280;DHT22;13225;47.804;12.116;2023-05-27T08:34:31;18.70;99.90
25280;DHT22;13225;47.804;12.116;2023-05-27T08:36:57;18.90;99.90
25280;DHT22;13225;47.804;12.116;2023-05-27T08:39:22;18.80;99.90
25280;DHT22;13225;47.804;12.116;2023-05-27T08:41:49;18.80;99.90
25280;DHT22;13225;47.804;12.116;2023-05-27T08:44:15;18.90;99.90
25280;DHT22;13225;47.804;12.116;2023-05-27T08:46:41;19.00;99.90
25280;DHT22;13225;47.804;12.116;2023-05-27T08:49:07;19.00;99.90
25280;DHT22;13225;47.804;12.116;2023-05-27T08:51:35;18.90;99.90
25280;DHT22;13225;47.804;12.116;2023-05-27T08:54:03;18.90;99.90
25280;DHT22;13225;47.804;12.116;2023-05-27T08:56:29;18.90;99.90
25280;DHT22;13225;47.804;12.116;2023-05-27T08:58:56;19.00;99.90
25280;DHT22;13225;47.804;12.116;2023-05-27T09:01:24;19.10;99.90
25280;DHT22;13225;47.804;12.116;2023-05-27T09:03:51;19.10;99.90
25280;DHT22;13225;47.804;12.116;2023-05-27T09:06:17;19.10;99.90
25280;DHT22;13225;47.804;12.116;2023-05-27T09:08:42;19.10;99.90
25280;DHT22;13225;47.804;12.116;2023-05-27T09:11:08;19.10;99.90
25280;DHT22;13225;47.804;12.116;2023-05-27T09:13:34;19.40;99.90
25280;DHT22;13225;47.804;12.116;2023-05-27T09:16:05;19.50;99.90
25280;DHT22;13225;47.804;12.116;2023-05-27T09:18:33;19.60;99.90
25280;DHT22;13225;47.804;12.116;2023-05-27T09:20:59;19.60;99.90
25280;DHT22;13225;47.804;12.116;2023-05-27T09:23:25;19.60;99.90
25280;DHT22;13225;47.804;12.116;2023-05-27T09:25:51;19.70;99.90
25280;DHT22;13225;47.804;12.116;2023-05-27T09:28:24;19.70;99.90
25280;DHT22;13225;47.804;12.116;2023-05-27T09:31:04;19.80;99.90
25280;DHT22;13225;47.804;12.116;2023-05-27T09:33:35;19.90;99.90
25280;DHT22;13225;47.804;12.116;2023-05-27T09:36:06;19.90;99.90
25280;DHT22;13225;47.804;12.116;2023-05-27T09:38:33;20.00;99.90
25280;DHT22;13225;47.804;12.116;2023-05-27T09:41:00;20.20;99.90
25280;DHT22;13225;47.804;12.116;2023-05-27T09:43:26;20.20;99.90
25280;DHT22;13225;47.804;12.116;2023-05-27T09:46:02;20.30;99.90
25280;DHT22;13225;47.804;12.116;2023-05-27T09:48:32;20.20;99.90
25280;DHT22;13225;47.804;12.116;2023-05-27T09:50:59;20.10;99.90
25280;DHT22;13225;47.804;12.116;2023-05-27T09:53:26;20.30;99.90
25280;DHT22;13225;47.804;12.116;2023-05-27T09:55:55;20.30;99.90
25280;DHT22;13225;47.804;12.116;2023-05-27T09:58:22;20.40;99.90
25280;DHT22;13225;47.804;12.116;2023-05-27T10:00:49;20.50;99.90
25280;DHT22;13225;47.804;12.116;2023-05-27T10:03:21;20.60;99.90
25280;DHT22;13225;47.804;12.116;2023-05-27T10:05:49;20.60;99.90
25280;DHT22;13225;47.804;12.116;2023-05-27T10:08:15;20.70;99.90
25280;DHT22;13225;47.804;12.116;2023-05-27T10:10:41;20.70;99.90
25280;DHT22;13225;47.804;12.116;2023-05-27T10:13:08;20.80;99.90
25280;DHT22;13225;47.804;12.116;2023-05-27T10:15:34;20.90;99.90
25280;DHT22;13225;47.804;12.116;2023-05-27T10:18:05;21.10;99.90
25280;DHT22;13225;47.804;12.116;2023-05-27T10:20:41;21.20;99.90
25280;DHT22;13225;47.804;12.116;2023-05-27T10:23:13;21.30;99.90
25280;DHT22;13225;47.804;12.116;2023-05-27T10:25:44;21.20;99.90
25280;DHT22;13225;47.804;12.116;2023-05-27T10:28:10;21.30;99.90
25280;DHT22;13225;47.804;12.116;2023-05-27T10:30:43;21.40;99.90
25280;DHT22;13225;47.804;12.116;2023-05-27T10:33:10;21.40;99.90
25280;DHT22;13225;47.804;12.116;2023-05-27T10:35:42;21.50;99.90
25280;DHT22;13225;47.804;12.116;2023-05-27T10:38:17;21.50;99.90
25280;DHT22;13225;47.804;12.116;2023-05-27T10:40:47;21.60;99.90
25280;DHT22;13225;47.804;12.116;2023-05-27T10:43:17;21.50;99.90
25280;DHT22;13225;47.804;12.116;2023-05-27T10:45:43;21.60;99.90
25280;DHT22;13225;47.804;12.116;2023-05-27T10:48:16;21.80;99.90
25280;DHT22;13225;47.804;12.116;2023-05-27T10:50:49;21.80;99.90
25280;DHT22;13225;47.804;12.116;2023-05-27T10:53:18;21.90;99.90
25280;DHT22;13225;47.804;12.116;2023-05-27T10:55:44;22.00;99.90
25280;DHT22;13225;47.804;12.116;2023-05-27T10:58:11;22.10;99.90
25280;DHT22;13225;47.804;12.116;2023-05-27T11:00:38;22.00;99.90
25280;DHT22;13225;47.804;12.116;2023-05-27T11:03:04;22.00;99.90
25280;DHT22;13225;47.804;12.116;2023-05-27T11:05:32;22.00;99.90
25280;DHT22;13225;47.804;12.116;2023-05-27T11:07:59;21.90;99.90
25280;DHT22;13225;47.804;12.116;2023-05-27T11:10:26;21.80;99.90
25280;DHT22;13225;47.804;12.116;2023-05-27T11:12:52;21.90;99.90
25280;DHT22;13225;47.804;12.116;2023-05-27T11:15:18;22.10;99.90
25280;DHT22;13225;47.804;12.116;2023-05-27T11:17:44;22.20;99.90
25280;DHT22;13225;47.804;12.116;2023-05-27T11:20:10;22.20;99.90
25280;DHT22;13225;47.804;12.116;2023-05-27T11:22:35;22.30;99.90
25280;DHT22;13225;47.804;12.116;2023-05-27T11:25:03;22.30;99.30
25280;DHT22;13225;47.804;12.116;2023-05-27T11:27:35;22.20;99.20
25280;DHT22;13225;47.804;12.116;2023-05-27T11:30:10;22.30;99.60
25280;DHT22;13225;47.804;12.116;2023-05-27T11:32:36;22.60;99.90
25280;DHT22;13225;47.804;12.116;2023-05-27T11:35:02;22.80;99.20
25280;DHT22;13225;47.804;12.116;2023-05-27T11:37:32;22.70;98.90
25280;DHT22;13225;47.804;12.116;2023-05-27T11:39:58;22.70;99.60
25280;DHT22;13225;47.804;12.116;2023-05-27T11:42:24;22.80;99.90
25280;DHT22;13225;47.804;12.116;2023-05-27T11:44:53;23.00;99.30
25280;DHT22;13225;47.804;12.116;2023-05-27T11:47:20;23.00;99.10
25280;DHT22;13225;47.804;12.116;2023-05-27T11:49:49;22.90;97.50
25280;DHT22;13225;47.804;12.116;2023-05-27T11:52:15;22.80;97.60
25280;DHT22;13225;47.804;12.116;2023-05-27T11:54:41;22.90;97.90
25280;DHT22;13225;47.804;12.116;2023-05-27T11:57:07;22.90;97.80
25280;DHT22;13225;47.804;12.116;2023-05-27T11:59:36;22.70;97.60
25280;DHT22;13225;47.804;12.116;2023-05-27T12:02:01;22.80;98.00
25280;DHT22;13225;47.804;12.116;2023-05-27T12:04:29;23.20;97.90
25280;DHT22;13225;47.804;12.116;2023-05-27T12:06:55;23.60;96.70
25280;DHT22;13225;47.804;12.116;2023-05-27T12:09:22;23.80;96.00
25280;DHT22;13225;47.804;12.116;2023-05-27T12:11:47;23.50;96.80
25280;DHT22;13225;47.804;12.116;2023-05-27T12:14:13;23.40;96.20
25280;DHT22;13225;47.804;12.116;2023-05-27T12:16:38;23.50;96.50
25280;DHT22;13225;47.804;12.116;2023-05-27T12:19:04;23.60;96.80
25280;DHT22;13225;47.804;12.116;2023-05-27T12:21:30;23.60;96.00
25280;DHT22;13225;47.804;12.116;2023-05-27T12:23:55;23.60;95.70
25280;DHT22;13225;47.804;12.116;2023-05-27T12:26:21;23.70;95.90
25280;DHT22;13225;47.804;12.116;2023-05-27T12:28:47;23.90;96.20
25280;DHT22;13225;47.804;12.116;2023-05-27T12:31:13;24.00;95.30
25280;DHT22;13225;47.804;12.116;2023-05-27T12:33:39;24.30;94.30
25280;DHT22;13225;47.804;12.116;2023-05-27T12:36:04;24.40;94.20
25280;DHT22;13225;47.804;12.116;2023-05-27T12:38:33;24.70;93.90
25280;DHT22;13225;47.804;12.116;2023-05-27T12:40:59;25.10;93.80
25280;DHT22;13225;47.804;12.116;2023-05-27T12:43:25;25.40;93.00
25280;DHT22;13225;47.804;12.116;2023-05-27T12:45:50;25.90;91.60
25280;DHT22;13225;47.804;12.116;2023-05-27T12:48:17;26.10;90.90
25280;DHT22;13225;47.804;12.116;2023-05-27T12:50:43;26.10;91.70
25280;DHT22;13225;47.804;12.116;2023-05-27T12:53:09;26.20;90.50
25280;DHT22;13225;47.804;12.116;2023-05-27T12:55:35;26.30;90.20
25280;DHT22;13225;47.804;12.116;2023-05-27T12:58:01;26.40;90.30
25280;DHT22;13225;47.804;12.116;2023-05-27T13:00:27;26.60;89.10
25280;DHT22;13225;47.804;12.116;2023-05-27T13:02:53;26.60;87.70
25280;DHT22;13225;47.804;12.116;2023-05-27T13:05:19;26.50;86.30
25280;DHT22;13225;47.804;12.116;2023-05-27T13:10:21;27.00;86.50
25280;DHT22;13225;47.804;12.116;2023-05-27T13:12:47;27.10;85.90
25280;DHT22;13225;47.804;12.116;2023-05-27T13:15:13;27.20;85.10
25280;DHT22;13225;47.804;12.116;2023-05-27T13:17:41;27.30;84.40
25280;DHT22;13225;47.804;12.116;2023-05-27T13:20:07;27.30;83.00
25280;DHT22;13225;47.804;12.116;2023-05-27T13:22:34;27.30;84.20
25280;DHT22;13225;47.804;12.116;2023-05-27T13:25:00;27.40;81.30
25280;DHT22;13225;47.804;12.116;2023-05-27T13:27:26;27.30;79.80
25280;DHT22;13225;47.804;12.116;2023-05-27T13:29:52;27.20;80.20
25280;DHT22;13225;47.804;12.116;2023-05-27T13:32:18;27.60;81.00
25280;DHT22;13225;47.804;12.116;2023-05-27T13:34:43;27.80;79.40
25280;DHT22;13225;47.804;12.116;2023-05-27T13:37:09;27.70;78.20
25280;DHT22;13225;47.804;12.116;2023-05-27T13:39:35;27.60;78.60
25280;DHT22;13225;47.804;12.116;2023-05-27T13:42:00;27.70;79.10
25280;DHT22;13225;47.804;12.116;2023-05-27T13:44:26;27.70;75.70
25280;DHT22;13225;47.804;12.116;2023-05-27T13:46:51;27.30;77.40
25280;DHT22;13225;47.804;12.116;2023-05-27T13:49:17;27.10;76.60
25280;DHT22;13225;47.804;12.116;2023-05-27T13:51:43;27.00;76.80
25280;DHT22;13225;47.804;12.116;2023-05-27T13:54:10;27.10;80.50
25280;DHT22;13225;47.804;12.116;2023-05-27T13:56:36;27.50;77.90
25280;DHT22;13225;47.804;12.116;2023-05-27T13:59:01;27.60;77.10
25280;DHT22;13225;47.804;12.116;2023-05-27T14:01:29;27.90;76.40
25280;DHT22;13225;47.804;12.116;2023-05-27T14:03:54;27.90;75.50
25280;DHT22;13225;47.804;12.116;2023-05-27T14:06:20;27.90;74.00
25280;DHT22;13225;47.804;12.116;2023-05-27T14:08:46;27.70;74.10
25280;DHT22;13225;47.804;12.116;2023-05-27T14:11:11;27.50;71.90
25280;DHT22;13225;47.804;12.116;2023-05-27T14:13:37;27.30;74.00
25280;DHT22;13225;47.804;12.116;2023-05-27T14:16:03;27.10;74.80
25280;DHT22;13225;47.804;12.116;2023-05-27T14:18:29;27.10;74.40
25280;DHT22;13225;47.804;12.116;2023-05-27T14:20:54;27.00;75.00
25280;DHT22;13225;47.804;12.116;2023-05-27T14:23:20;27.00;74.30
25280;DHT22;13225;47.804;12.116;2023-05-27T14:25:45;27.10;76.60
25280;DHT22;13225;47.804;12.116;2023-05-27T14:28:11;27.50;74.40
25280;DHT22;13225;47.804;12.116;2023-05-27T14:30:36;27.70;73.40
25280;DHT22;13225;47.804;12.116;2023-05-27T14:33:06;27.70;73.50
25280;DHT22;13225;47.804;12.116;2023-05-27T14:35:34;27.50;72.70
25280;DHT22;13225;47.804;12.116;2023-05-27T14:38:01;27.50;74.10
25280;DHT22;13225;47.804;12.116;2023-05-27T14:40:27;27.00;73.20
25280;DHT22;13225;47.804;12.116;2023-05-27T14:42:53;26.90;75.20
25280;DHT22;13225;47.804;12.116;2023-05-27T14:45:18;26.60;74.60
25280;DHT22;13225;47.804;12.116;2023-05-27T14:47:46;26.60;74.80
25280;DHT22;13225;47.804;12.116;2023-05-27T14:50:12;26.90;75.40
25280;DHT22;13225;47.804;12.116;2023-05-27T14:52:37;27.20;73.50
25280;DHT22;13225;47.804;12.116;2023-05-27T14:55:04;27.50;72.90
25280;DHT22;13225;47.804;12.116;2023-05-27T14:57:30;27.10;71.90
25280;DHT22;13225;47.804;12.116;2023-05-27T15:00:02;27.50;74.30
25280;DHT22;13225;47.804;12.116;2023-05-27T15:02:33;27.90;74.10
25280;DHT22;13225;47.804;12.116;2023-05-27T15:04:59;27.90;73.30
25280;DHT22;13225;47.804;12.116;2023-05-27T15:07:25;27.90;72.70
25280;DHT22;13225;47.804;12.116;2023-05-27T15:09:51;27.90;72.40
25280;DHT22;13225;47.804;12.116;2023-05-27T15:12:16;27.60;71.90
25280;DHT22;13225;47.804;12.116;2023-05-27T15:14:43;27.70;73.20
25280;DHT22;13225;47.804;12.116;2023-05-27T15:17:08;28.20;72.30
25280;DHT22;13225;47.804;12.116;2023-05-27T15:19:37;28.40;72.50
25280;DHT22;13225;47.804;12.116;2023-05-27T15:22:03;28.10;72.20
25280;DHT22;13225;47.804;12.116;2023-05-27T15:24:29;28.00;71.20
25280;DHT22;13225;47.804;12.116;2023-05-27T15:26:55;28.10;72.50